NCAR-RAP Real-Time Weather Data

Output produced by METARs form (17 December 2018  14:49 UTC)
found at http://weather.rap.ucar.edu/surface/
 
RJBE 171200Z 29015KT CAVOK 09/00 Q1013
RJBE 171100Z 29015KT 9999 FEW025 BKN060 09/00 Q1013
RJBE 171000Z 29016KT 9999 FEW025 BKN080 10/01 Q1012
RJBE 170900Z 29016KT 9999 FEW025 BKN080 10/00 Q1012
RJBE 170800Z 28015KT 9999 FEW025 SCT050 10/01 Q1011
RJBE 170700Z 29018KT 9999 FEW025 SCT070 11/01 Q1010
RJBE 170600Z 29018KT 9999 FEW020 SCT060 12/03 Q1010
RJBE 170500Z 29012KT 9999 FEW030 BKN060 13/04 Q1009
RJBE 170400Z 28012KT 9999 FEW030 SCT070 13/03 Q1009
RJBE 170300Z 28010KT 9999 FEW030 13/04 Q1010
RJBE 170200Z 28011KT 9999 FEW020 12/07 Q1011
RJBE 170100Z 29010KT 9999 FEW005 SCT050 11/07 Q1012
RJBE 170000Z 28009KT 9999 FEW005 SCT010 BKN050 10/08 Q1012
RJBE 162300Z 30009KT 9999 FEW005 SCT040 BKN050 10/08 Q1011
RJBE 162200Z 31009KT 9999 FEW008 SCT025 BKN045 09/08 Q1011
RJBE 161200Z 05011KT 5000 -SHRA BR FEW007 BKN025 BKN050 08/07 Q1016
RJBE 161100Z 05011KT 7000 -RA FEW010 SCT030 BKN050 08/06 Q1017
RJBE 161000Z 04009KT 5000 -RA BR FEW015 SCT030 BKN050 08/06 Q1017
RJBE 160900Z 06008KT 9999 -RA FEW015 SCT040 BKN050 09/05 Q1018
RJBE 160800Z 06008KT 9999 -RA FEW020 SCT050 BKN080 10/04 Q1018
RJBE 160700Z 06009KT 9999 VCSH FEW025 SCT060 BKN080 11/03 Q1019
RJBE 160600Z 06005KT 9999 -RA FEW030 SCT050 BKN080 11/03 Q1019
RJBE 160500Z 04006KT 9999 FEW030 SCT080 BKN100 10/02 Q1020
RJBE 160400Z 07004KT 030V110 9999 FEW030 SCT120 BKN140 10/02 Q1021
RJBE 160300Z 05004KT 020V080 9999 FEW030 SCT140 BKN/// 09/01 Q1022
RJBE 160200Z 05008KT 9999 FEW030 SCT140 BKN/// 08/M00 Q1024
RJBE 160100Z 06009KT 9999 FEW030 SCT180 07/00 Q1025
RJBE 160000Z 07009KT 9999 FEW020 SCT160 BKN/// 05/01 Q1025
RJBE 151200Z 03007KT 9999 FEW030 SCT/// 06/M02 Q1029
RJBE 151100Z 02006KT 9999 FEW030 06/M02 Q1029
RJBE 151000Z 35008KT 9999 FEW025 06/M03 Q1029
RJBE 150900Z 01009KT 9999 FEW025 SCT045 07/M04 Q1029
RJBE 150800Z 35008KT 9999 FEW030 SCT050 07/M04 Q1029
RJBE 150700Z 36011KT 9999 FEW030 BKN050 09/M04 Q1028
RJBE 150600Z 02005KT 340V070 9999 FEW030 BKN050 09/M04 Q1028
RJBE 150500Z 35009KT 320V050 9999 FEW030 BKN050 10/M04 Q1028
RJBE 150400Z VRB06KT 9999 FEW030 SCT040 09/M03 Q1029
RJBE 150300Z 34005KT 9999 FEW030 BKN050 08/M02 Q1030